sensor_id;sensor_type;location;lat;lon;timestamp;pressure;altitude;pressure_sealevel;temperature;humidity
21153;BME280;10734;44.792;20.482;2022-09-20T00:01:18;100140.28;;;9.18;100.00
21153;BME280;10734;44.792;20.482;2022-09-20T00:03:52;100146.47;;;9.19;100.00
21153;BME280;10734;44.792;20.482;2022-09-20T00:06:20;100136.59;;;9.20;100.00
21153;BME280;10734;44.792;20.482;2022-09-20T00:08:47;100151.72;;;9.21;100.00
21153;BME280;10734;44.792;20.482;2022-09-20T00:11:15;100145.38;;;9.22;100.00
21153;BME280;10734;44.792;20.482;2022-09-20T00:13:43;100148.75;;;9.24;100.00
21153;BME280;10734;44.792;20.482;2022-09-20T00:16:12;100139.72;;;9.25;100.00
21153;BME280;10734;44.792;20.482;2022-09-20T00:18:39;100138.59;;;9.27;100.00
21153;BME280;10734;44.792;20.482;2022-09-20T00:21:05;100135.50;;;9.32;100.00
21153;BME280;10734;44.792;20.482;2022-09-20T00:23:32;100133.50;;;9.34;100.00
21153;BME280;10734;44.792;20.482;2022-09-20T00:26:00;100140.56;;;9.35;100.00
21153;BME280;10734;44.792;20.482;2022-09-20T00:28:27;100138.59;;;9.37;100.00
21153;BME280;10734;44.792;20.482;2022-09-20T00:30:54;100143.69;;;9.40;100.00
21153;BME280;10734;44.792;20.482;2022-09-20T00:33:22;100132.94;;;9.40;100.00
21153;BME280;10734;44.792;20.482;2022-09-20T00:35:49;100141.69;;;9.42;100.00
21153;BME280;10734;44.792;20.482;2022-09-20T00:38:15;100142.28;;;9.46;100.00
21153;BME280;10734;44.792;20.482;2022-09-20T00:40:42;100134.22;;;9.46;100.00
21153;BME280;10734;44.792;20.482;2022-09-20T00:43:12;100126.16;;;9.46;100.00
21153;BME280;10734;44.792;20.482;2022-09-20T00:45:39;100125.28;;;9.45;100.00
21153;BME280;10734;44.792;20.482;2022-09-20T00:50:36;100130.66;;;9.45;100.00
21153;BME280;10734;44.792;20.482;2022-09-20T00:53:09;100132.38;;;9.46;100.00
21153;BME280;10734;44.792;20.482;2022-09-20T00:55:45;100139.44;;;9.47;100.00
21153;BME280;10734;44.792;20.482;2022-09-20T00:58:13;100141.41;;;9.45;100.00
21153;BME280;10734;44.792;20.482;2022-09-20T01:00:39;100145.66;;;9.48;100.00
21153;BME280;10734;44.792;20.482;2022-09-20T01:03:07;100139.44;;;9.47;100.00
21153;BME280;10734;44.792;20.482;2022-09-20T01:05:36;100139.75;;;9.44;100.00
21153;BME280;10734;44.792;20.482;2022-09-20T01:08:03;100138.31;;;9.40;100.00
21153;BME280;10734;44.792;20.482;2022-09-20T01:10:30;100139.28;;;9.39;100.00
21153;BME280;10734;44.792;20.482;2022-09-20T01:12:57;100132.94;;;9.40;100.00
21153;BME280;10734;44.792;20.482;2022-09-20T01:15:37;100130.13;;;9.32;100.00
21153;BME280;10734;44.792;20.482;2022-09-20T01:18:19;100137.16;;;9.33;100.00
21153;BME280;10734;44.792;20.482;2022-09-20T01:20:53;100133.22;;;9.27;100.00
21153;BME280;10734;44.792;20.482;2022-09-20T01:28:42;100123.59;;;9.25;100.00
21153;BME280;10734;44.792;20.482;2022-09-20T01:31:31;100118.22;;;9.25;100.00
21153;BME280;10734;44.792;20.482;2022-09-20T01:34:10;100116.53;;;9.24;100.00
21153;BME280;10734;44.792;20.482;2022-09-20T01:41:52;100119.06;;;9.25;100.00
21153;BME280;10734;44.792;20.482;2022-09-20T01:44:22;100110.16;;;9.25;100.00
21153;BME280;10734;44.792;20.482;2022-09-20T01:47:00;100107.47;;;9.25;100.00
21153;BME280;10734;44.792;20.482;2022-09-20T02:05:07;100105.78;;;9.04;100.00
21153;BME280;10734;44.792;20.482;2022-09-20T02:12:58;100112.81;;;9.05;100.00
21153;BME280;10734;44.792;20.482;2022-09-20T02:21:03;100117.06;;;8.98;100.00
21153;BME280;10734;44.792;20.482;2022-09-20T02:23:39;100113.66;;;8.96;100.00
21153;BME280;10734;44.792;20.482;2022-09-20T02:26:31;100115.38;;;8.97;100.00
21153;BME280;10734;44.792;20.482;2022-09-20T02:31:54;100115.91;;;8.91;100.00
21153;BME280;10734;44.792;20.482;2022-09-20T02:39:49;100111.09;;;8.75;100.00
21153;BME280;10734;44.792;20.482;2022-09-20T02:45:08;100109.66;;;8.71;100.00
21153;BME280;10734;44.792;20.482;2022-09-20T02:47:41;100103.44;;;8.70;100.00
21153;BME280;10734;44.792;20.482;2022-09-20T02:52:53;100107.25;;;8.68;100.00
21153;BME280;10734;44.792;20.482;2022-09-20T02:55:39;100103.72;;;8.67;100.00
21153;BME280;10734;44.792;20.482;2022-09-20T03:00:56;100109.91;;;8.68;100.00
21153;BME280;10734;44.792;20.482;2022-09-20T03:06:16;100110.53;;;8.71;100.00
21153;BME280;10734;44.792;20.482;2022-09-20T03:08:53;100108.53;;;8.73;100.00
21153;BME280;10734;44.792;20.482;2022-09-20T03:19:47;100107.16;;;8.89;100.00
21153;BME280;10734;44.792;20.482;2022-09-20T03:41:54;100108.00;;;8.99;100.00
21153;BME280;10734;44.792;20.482;2022-09-20T03:44:33;100094.59;;;8.99;100.00
21153;BME280;10734;44.792;20.482;2022-09-20T04:08:43;100111.16;;;9.24;100.00
21153;BME280;10734;44.792;20.482;2022-09-20T04:11:16;100109.19;;;9.26;100.00
21153;BME280;10734;44.792;20.482;2022-09-20T04:13:54;100106.50;;;9.26;100.00
21153;BME280;10734;44.792;20.482;2022-09-20T04:19:15;100112.84;;;9.25;100.00
21153;BME280;10734;44.792;20.482;2022-09-20T04:26:43;100107.47;;;9.25;100.00
21153;BME280;10734;44.792;20.482;2022-09-20T04:31:45;100108.19;;;9.27;100.00
21153;BME280;10734;44.792;20.482;2022-09-20T04:34:24;100112.84;;;9.25;100.00
21153;BME280;10734;44.792;20.482;2022-09-20T04:37:21;100112.84;;;9.25;100.00
21153;BME280;10734;44.792;20.482;2022-09-20T04:39:58;100109.63;;;9.21;100.00
21153;BME280;10734;44.792;20.482;2022-09-20T04:45:33;100111.44;;;9.21;100.00
21153;BME280;10734;44.792;20.482;2022-09-20T04:50:58;100129.81;;;9.25;100.00
21153;BME280;10734;44.792;20.482;2022-09-20T04:59:07;100140.31;;;9.38;100.00
21153;BME280;10734;44.792;20.482;2022-09-20T05:04:29;100147.34;;;9.39;100.00
21153;BME280;10734;44.792;20.482;2022-09-20T05:12:24;100148.47;;;9.27;100.00
21153;BME280;10734;44.792;20.482;2022-09-20T05:25:29;100155.28;;;9.31;100.00
21153;BME280;10734;44.792;20.482;2022-09-20T05:28:05;100161.66;;;9.49;100.00
21153;BME280;10734;44.792;20.482;2022-09-20T05:30:41;100159.78;;;9.60;100.00
21153;BME280;10734;44.792;20.482;2022-09-20T05:38:23;100160.09;;;9.76;100.00
21153;BME280;10734;44.792;20.482;2022-09-20T05:43:29;100150.88;;;9.88;100.00
21153;BME280;10734;44.792;20.482;2022-09-20T06:04:20;100149.03;;;9.99;100.00
21153;BME280;10734;44.792;20.482;2022-09-20T06:14:45;100135.94;;;10.33;100.00
21153;BME280;10734;44.792;20.482;2022-09-20T06:19:43;100142.00;;;10.73;100.00
21153;BME280;10734;44.792;20.482;2022-09-20T06:22:14;100155.84;;;10.78;100.00
21153;BME280;10734;44.792;20.482;2022-09-20T06:24:43;100159.25;;;10.80;100.00
21153;BME280;10734;44.792;20.482;2022-09-20T06:27:19;100155.84;;;10.78;100.00
21153;BME280;10734;44.792;20.482;2022-09-20T06:29:56;100168.31;;;10.79;100.00
21153;BME280;10734;44.792;20.482;2022-09-20T06:32:24;100153.75;;;11.00;100.00
21153;BME280;10734;44.792;20.482;2022-09-20T06:34:52;100152.53;;;11.12;100.00
21153;BME280;10734;44.792;20.482;2022-09-20T06:37:24;100145.13;;;11.14;100.00
21153;BME280;10734;44.792;20.482;2022-09-20T06:43:09;100157.09;;;11.29;100.00
21153;BME280;10734;44.792;20.482;2022-09-20T06:45:40;100159.78;;;11.29;100.00
21153;BME280;10734;44.792;20.482;2022-09-20T06:48:08;100164.09;;;11.22;100.00
21153;BME280;10734;44.792;20.482;2022-09-20T06:50:38;100169.19;;;11.43;100.00
21153;BME280;10734;44.792;20.482;2022-09-20T06:53:05;100160.25;;;11.43;100.00
21153;BME280;10734;44.792;20.482;2022-09-20T06:55:34;100163.25;;;11.76;100.00
21153;BME280;10734;44.792;20.482;2022-09-20T06:58:02;100170.06;;;12.24;100.00
21153;BME280;10734;44.792;20.482;2022-09-20T07:00:29;100169.22;;;12.50;100.00
21153;BME280;10734;44.792;20.482;2022-09-20T07:02:55;100169.78;;;12.70;100.00
21153;BME280;10734;44.792;20.482;2022-09-20T07:05:22;100175.59;;;12.49;100.00
21153;BME280;10734;44.792;20.482;2022-09-20T07:07:55;100178.53;;;12.98;100.00
21153;BME280;10734;44.792;20.482;2022-09-20T07:10:22;100180.22;;;12.99;100.00
21153;BME280;10734;44.792;20.482;2022-09-20T07:12:49;100185.00;;;12.71;100.00
21153;BME280;10734;44.792;20.482;2022-09-20T07:15:16;100189.56;;;13.21;100.00
21153;BME280;10734;44.792;20.482;2022-09-20T07:17:45;100187.72;;;13.13;100.00
21153;BME280;10734;44.792;20.482;2022-09-20T07:20:14;100187.81;;;12.61;100.00
21153;BME280;10734;44.792;20.482;2022-09-20T07:22:46;100195.91;;;12.95;100.00
21153;BME280;10734;44.792;20.482;2022-09-20T07:25:13;100189.56;;;13.21;100.00
21153;BME280;10734;44.792;20.482;2022-09-20T07:27:40;100184.06;;;13.31;100.00
21153;BME280;10734;44.792;20.482;2022-09-20T07:30:06;100184.81;;;13.74;100.00
21153;BME280;10734;44.792;20.482;2022-09-20T07:32:33;100191.59;;;13.95;100.00
21153;BME280;10734;44.792;20.482;2022-09-20T07:34:59;100190.16;;;13.41;100.00
21153;BME280;10734;44.792;20.482;2022-09-20T07:37:27;100194.56;;;13.34;100.00
21153;BME280;10734;44.792;20.482;2022-09-20T07:40:00;100199.16;;;13.50;100.00
21153;BME280;10734;44.792;20.482;2022-09-20T07:42:26;100192.25;;;13.56;100.00
21153;BME280;10734;44.792;20.482;2022-09-20T07:44:54;100193.78;;;13.66;100.00
21153;BME280;10734;44.792;20.482;2022-09-20T07:47:21;100188.22;;;13.76;100.00
21153;BME280;10734;44.792;20.482;2022-09-20T07:49:50;100194.97;;;13.97;100.00
21153;BME280;10734;44.792;20.482;2022-09-20T07:52:17;100186.53;;;13.92;100.00
21153;BME280;10734;44.792;20.482;2022-09-20T07:54:43;100210.16;;;14.55;100.00
21153;BME280;10734;44.792;20.482;2022-09-20T07:57:11;100196.75;;;14.70;100.00
21153;BME280;10734;44.792;20.482;2022-09-20T07:59:38;100192.47;;;14.84;100.00
21153;BME280;10734;44.792;20.482;2022-09-20T08:02:04;100192.44;;;14.92;100.00
21153;BME280;10734;44.792;20.482;2022-09-20T08:04:31;100192.41;;;15.01;100.00
21153;BME280;10734;44.792;20.482;2022-09-20T08:06:58;100198.03;;;15.31;100.00
21153;BME280;10734;44.792;20.482;2022-09-20T08:09:26;100200.22;;;15.58;100.00
21153;BME280;10734;44.792;20.482;2022-09-20T08:11:53;100200.78;;;15.22;100.00
21153;BME280;10734;44.792;20.482;2022-09-20T08:14:21;100183.88;;;15.12;100.00
21153;BME280;10734;44.792;20.482;2022-09-20T08:16:48;100185.19;;;16.02;100.00
21153;BME280;10734;44.792;20.482;2022-09-20T08:19:19;100185.31;;;16.39;100.00
21153;BME280;10734;44.792;20.482;2022-09-20T08:21:47;100191.22;;;16.27;100.00
21153;BME280;10734;44.792;20.482;2022-09-20T08:24:15;100190.72;;;16.09;100.00
21153;BME280;10734;44.792;20.482;2022-09-20T08:26:42;100193.72;;;16.14;100.00
21153;BME280;10734;44.792;20.482;2022-09-20T08:29:09;100199.50;;;16.79;100.00
21153;BME280;10734;44.792;20.482;2022-09-20T08:31:36;100193.97;;;16.57;100.00
21153;BME280;10734;44.792;20.482;2022-09-20T08:34:03;100186.84;;;16.56;98.87
21153;BME280;10734;44.792;20.482;2022-09-20T08:36:32;100198.53;;;16.27;97.76
21153;BME280;10734;44.792;20.482;2022-09-20T08:39:02;100186.22;;;16.69;96.00
21153;BME280;10734;44.792;20.482;2022-09-20T08:41:56;100180.66;;;16.77;97.59
21153;BME280;10734;44.792;20.482;2022-09-20T08:44:34;100177.56;;;16.35;97.22
21153;BME280;10734;44.792;20.482;2022-09-20T08:47:06;100186.09;;;16.92;96.08
21153;BME280;10734;44.792;20.482;2022-09-20T08:49:35;100181.28;;;17.24;94.37
21153;BME280;10734;44.792;20.482;2022-09-20T08:52:02;100189.84;;;16.61;95.68
21153;BME280;10734;44.792;20.482;2022-09-20T08:54:35;100182.72;;;16.60;96.31
21153;BME280;10734;44.792;20.482;2022-09-20T08:57:03;100186.28;;;16.46;95.00
21153;BME280;10734;44.792;20.482;2022-09-20T08:59:32;100179.72;;;16.55;93.36
21153;BME280;10734;44.792;20.482;2022-09-20T09:01:58;100179.09;;;16.83;92.84
21153;BME280;10734;44.792;20.482;2022-09-20T09:04:30;100179.00;;;16.61;92.56
21153;BME280;10734;44.792;20.482;2022-09-20T09:06:59;100176.56;;;16.81;92.75
21153;BME280;10734;44.792;20.482;2022-09-20T09:09:26;100177.63;;;17.17;91.69
21153;BME280;10734;44.792;20.482;2022-09-20T09:11:55;100176.50;;;17.26;88.63
21153;BME280;10734;44.792;20.482;2022-09-20T09:17:09;100162.78;;;18.21;85.89
21153;BME280;10734;44.792;20.482;2022-09-20T09:24:46;100144.91;;;18.46;85.16
21153;BME280;10734;44.792;20.482;2022-09-20T09:27:31;100161.63;;;18.08;86.55
21153;BME280;10734;44.792;20.482;2022-09-20T09:29:57;100145.69;;;17.84;86.34
21153;BME280;10734;44.792;20.482;2022-09-20T09:32:25;100143.63;;;17.86;85.73
21153;BME280;10734;44.792;20.482;2022-09-20T09:34:54;100142.28;;;18.25;84.15
21153;BME280;10734;44.792;20.482;2022-09-20T09:37:23;100140.75;;;18.50;84.10
21153;BME280;10734;44.792;20.482;2022-09-20T09:42:33;100135.63;;;18.69;82.38
21153;BME280;10734;44.792;20.482;2022-09-20T09:45:12;100131.72;;;18.85;79.23
21153;BME280;10734;44.792;20.482;2022-09-20T09:47:51;100129.13;;;18.70;81.10
21153;BME280;10734;44.792;20.482;2022-09-20T09:50:22;100125.34;;;18.71;80.67
21153;BME280;10734;44.792;20.482;2022-09-20T09:52:56;100125.19;;;18.44;82.17
21153;BME280;10734;44.792;20.482;2022-09-20T09:55:24;100114.63;;;18.28;83.06
21153;BME280;10734;44.792;20.482;2022-09-20T09:58:02;100122.06;;;18.82;82.20
21153;BME280;10734;44.792;20.482;2022-09-20T10:00:32;100111.88;;;18.63;80.31
21153;BME280;10734;44.792;20.482;2022-09-20T10:03:19;100114.97;;;17.90;83.41
21153;BME280;10734;44.792;20.482;2022-09-20T10:08:37;100109.03;;;17.58;82.43
21153;BME280;10734;44.792;20.482;2022-09-20T10:36:56;100113.97;;;15.77;97.49
21153;BME280;10734;44.792;20.482;2022-09-20T10:48:04;100121.56;;;17.16;90.72
21153;BME280;10734;44.792;20.482;2022-09-20T10:55:28;100109.25;;;19.65;76.29
21153;BME280;10734;44.792;20.482;2022-09-20T10:58:04;100110.47;;;19.29;76.88
21153;BME280;10734;44.792;20.482;2022-09-20T11:03:05;100109.19;;;18.28;77.46
21153;BME280;10734;44.792;20.482;2022-09-20T11:08:18;100103.72;;;19.11;72.88
21153;BME280;10734;44.792;20.482;2022-09-20T11:10:49;100101.91;;;18.83;71.15
21153;BME280;10734;44.792;20.482;2022-09-20T11:13:29;100098.31;;;19.31;71.50
21153;BME280;10734;44.792;20.482;2022-09-20T11:16:02;100097.34;;;19.92;70.89
21153;BME280;10734;44.792;20.482;2022-09-20T11:18:42;100095.00;;;20.09;70.02
21153;BME280;10734;44.792;20.482;2022-09-20T11:21:29;100091.22;;;19.70;70.19
21153;BME280;10734;44.792;20.482;2022-09-20T11:24:00;100103.31;;;19.08;70.66
21153;BME280;10734;44.792;20.482;2022-09-20T11:29:00;100092.50;;;19.81;66.87
21153;BME280;10734;44.792;20.482;2022-09-20T11:31:34;100085.69;;;20.51;64.03
21153;BME280;10734;44.792;20.482;2022-09-20T11:34:24;100085.75;;;20.04;60.50
21153;BME280;10734;44.792;20.482;2022-09-20T11:36:58;100086.63;;;19.98;61.16
21153;BME280;10734;44.792;20.482;2022-09-20T11:41:59;100081.50;;;20.35;60.51
21153;BME280;10734;44.792;20.482;2022-09-20T11:44:26;100077.72;;;20.36;60.87
21153;BME280;10734;44.792;20.482;2022-09-20T11:47:10;100069.41;;;19.90;62.44
21153;BME280;10734;44.792;20.482;2022-09-20T11:58:26;100064.50;;;18.22;69.33
21153;BME280;10734;44.792;20.482;2022-09-20T12:00:49;100064.56;;;18.01;70.68
21153;BME280;10734;44.792;20.482;2022-09-20T12:05:53;100077.16;;;17.52;72.71
21153;BME280;10734;44.792;20.482;2022-09-20T12:08:23;100075.25;;;17.31;73.24
21153;BME280;10734;44.792;20.482;2022-09-20T12:10:57;100069.81;;;17.31;74.37
21153;BME280;10734;44.792;20.482;2022-09-20T12:13:25;100058.88;;;17.24;75.17
21153;BME280;10734;44.792;20.482;2022-09-20T12:18:30;100062.25;;;17.26;72.94
21153;BME280;10734;44.792;20.482;2022-09-20T12:28:49;100063.22;;;19.15;70.16
21153;BME280;10734;44.792;20.482;2022-09-20T12:36:21;100054.22;;;20.80;65.75
21153;BME280;10734;44.792;20.482;2022-09-20T12:41:24;100044.94;;;20.22;67.12
21153;BME280;10734;44.792;20.482;2022-09-20T12:43:55;100047.31;;;19.58;67.77
21153;BME280;10734;44.792;20.482;2022-09-20T12:46:30;100054.19;;;19.14;68.60
21153;BME280;10734;44.792;20.482;2022-09-20T12:52:28;100040.41;;;18.26;68.04
21153;BME280;10734;44.792;20.482;2022-09-20T12:58:29;100026.78;;;20.48;58.95
21153;BME280;10734;44.792;20.482;2022-09-20T13:08:41;100032.50;;;21.56;52.49
21153;BME280;10734;44.792;20.482;2022-09-20T13:11:13;100023.84;;;21.27;54.29
21153;BME280;10734;44.792;20.482;2022-09-20T13:13:50;100021.94;;;20.95;54.99
21153;BME280;10734;44.792;20.482;2022-09-20T13:16:32;100023.84;;;20.50;54.78
21153;BME280;10734;44.792;20.482;2022-09-20T13:19:15;100022.94;;;19.97;57.08
21153;BME280;10734;44.792;20.482;2022-09-20T13:22:04;100031.56;;;19.74;57.13
21153;BME280;10734;44.792;20.482;2022-09-20T13:24:31;100023.16;;;19.75;55.83
21153;BME280;10734;44.792;20.482;2022-09-20T13:27:02;100019.78;;;19.27;58.37
21153;BME280;10734;44.792;20.482;2022-09-20T13:29:39;100022.53;;;19.27;59.96
21153;BME280;10734;44.792;20.482;2022-09-20T13:32:28;100026.13;;;19.81;59.10
21153;BME280;10734;44.792;20.482;2022-09-20T13:37:39;100005.06;;;21.62;56.76
21153;BME280;10734;44.792;20.482;2022-09-20T13:40:15;100001.34;;;22.00;54.51
21153;BME280;10734;44.792;20.482;2022-09-20T13:42:42;100013.81;;;21.96;53.69
21153;BME280;10734;44.792;20.482;2022-09-20T13:45:11;100010.38;;;20.48;57.00
21153;BME280;10734;44.792;20.482;2022-09-20T13:47:40;100014.75;;;19.50;60.89
21153;BME280;10734;44.792;20.482;2022-09-20T13:50:21;100013.28;;;18.53;64.56
21153;BME280;10734;44.792;20.482;2022-09-20T13:52:52;100009.34;;;18.13;67.41
21153;BME280;10734;44.792;20.482;2022-09-20T13:55:20;100016.56;;;17.93;68.60
21153;BME280;10734;44.792;20.482;2022-09-20T13:57:47;100013.91;;;17.50;70.71
21153;BME280;10734;44.792;20.482;2022-09-20T14:00:13;100005.50;;;17.01;72.44
21153;BME280;10734;44.792;20.482;2022-09-20T14:02:40;100006.13;;;16.82;73.71
21153;BME280;10734;44.792;20.482;2022-09-20T14:05:12;100005.69;;;16.78;74.37
21153;BME280;10734;44.792;20.482;2022-09-20T14:07:42;100010.91;;;16.58;76.03
21153;BME280;10734;44.792;20.482;2022-09-20T14:10:25;100023.28;;;16.31;78.17
21153;BME280;10734;44.792;20.482;2022-09-20T14:12:52;100047.66;;;16.24;79.23
21153;BME280;10734;44.792;20.482;2022-09-20T14:15:19;100041.16;;;15.95;82.56
21153;BME280;10734;44.792;20.482;2022-09-20T14:17:47;100049.97;;;15.59;89.38
21153;BME280;10734;44.792;20.482;2022-09-20T14:20:17;100050.84;;;15.37;96.53
21153;BME280;10734;44.792;20.482;2022-09-20T14:22:43;100053.25;;;15.32;99.08
21153;BME280;10734;44.792;20.482;2022-09-20T14:27:39;100049.41;;;15.26;92.28
21153;BME280;10734;44.792;20.482;2022-09-20T14:30:25;100052.66;;;15.21;92.25
21153;BME280;10734;44.792;20.482;2022-09-20T14:32:53;100056.28;;;15.37;90.52
21153;BME280;10734;44.792;20.482;2022-09-20T14:35:21;100053.41;;;15.53;91.17
21153;BME280;10734;44.792;20.482;2022-09-20T14:37:52;100059.88;;;15.52;89.11
21153;BME280;10734;44.792;20.482;2022-09-20T14:40:27;100060.72;;;15.53;88.13
21153;BME280;10734;44.792;20.482;2022-09-20T14:42:57;100061.56;;;15.53;88.29
21153;BME280;10734;44.792;20.482;2022-09-20T14:47:58;100063.97;;;15.48;89.81
21153;BME280;10734;44.792;20.482;2022-09-20T14:50:27;100062.44;;;15.31;86.56
21153;BME280;10734;44.792;20.482;2022-09-20T14:52:58;100078.44;;;15.40;87.32
21153;BME280;10734;44.792;20.482;2022-09-20T14:55:25;100073.22;;;15.39;87.38
21153;BME280;10734;44.792;20.482;2022-09-20T14:58:10;100072.19;;;15.40;88.26
21153;BME280;10734;44.792;20.482;2022-09-20T15:03:13;100073.13;;;15.47;87.64
21153;BME280;10734;44.792;20.482;2022-09-20T15:05:41;100071.09;;;15.49;86.66
21153;BME280;10734;44.792;20.482;2022-09-20T15:08:10;100066.03;;;15.46;87.08
21153;BME280;10734;44.792;20.482;2022-09-20T15:10:39;100059.28;;;15.42;85.15
21153;BME280;10734;44.792;20.482;2022-09-20T15:13:08;100064.34;;;15.45;84.62
21153;BME280;10734;44.792;20.482;2022-09-20T15:15:34;100078.19;;;15.50;86.69
21153;BME280;10734;44.792;20.482;2022-09-20T15:18:01;100071.22;;;15.33;87.48
21153;BME280;10734;44.792;20.482;2022-09-20T15:20:28;100060.84;;;15.36;88.11
21153;BME280;10734;44.792;20.482;2022-09-20T15:22:54;100056.03;;;15.23;88.61
21153;BME280;10734;44.792;20.482;2022-09-20T15:25:23;100061.63;;;14.99;89.75
21153;BME280;10734;44.792;20.482;2022-09-20T15:27:49;100058.66;;;14.85;90.25
21153;BME280;10734;44.792;20.482;2022-09-20T15:30:17;100059.75;;;14.76;90.54
21153;BME280;10734;44.792;20.482;2022-09-20T15:32:47;100065.28;;;14.83;90.21
21153;BME280;10734;44.792;20.482;2022-09-20T15:35:14;100062.84;;;14.65;89.26
21153;BME280;10734;44.792;20.482;2022-09-20T15:37:40;100057.13;;;14.51;90.90
21153;BME280;10734;44.792;20.482;2022-09-20T15:40:07;100055.78;;;14.47;91.49
21153;BME280;10734;44.792;20.482;2022-09-20T15:42:34;100065.97;;;14.37;92.68
21153;BME280;10734;44.792;20.482;2022-09-20T15:45:11;100065.97;;;14.37;92.19
21153;BME280;10734;44.792;20.482;2022-09-20T15:47:39;100062.94;;;14.32;93.03
21153;BME280;10734;44.792;20.482;2022-09-20T15:50:06;100069.56;;;14.29;92.57
21153;BME280;10734;44.792;20.482;2022-09-20T15:52:37;100073.63;;;14.25;93.27
21153;BME280;10734;44.792;20.482;2022-09-20T15:55:05;100068.06;;;14.18;93.21
21153;BME280;10734;44.792;20.482;2022-09-20T15:57:32;100054.28;;;14.45;91.13
21153;BME280;10734;44.792;20.482;2022-09-20T15:59:59;100063.38;;;15.38;85.95
21153;BME280;10734;44.792;20.482;2022-09-20T16:02:26;100069.41;;;15.25;86.13
21153;BME280;10734;44.792;20.482;2022-09-20T16:04:53;100066.25;;;14.50;87.48
21153;BME280;10734;44.792;20.482;2022-09-20T16:07:21;100060.25;;;14.24;89.35
21153;BME280;10734;44.792;20.482;2022-09-20T16:09:54;100066.53;;;14.16;90.04
21153;BME280;10734;44.792;20.482;2022-09-20T16:12:22;100057.28;;;14.02;90.83
21153;BME280;10734;44.792;20.482;2022-09-20T16:14:49;100065.75;;;13.91;91.11
21153;BME280;10734;44.792;20.482;2022-09-20T16:17:15;100073.56;;;13.86;92.15
21153;BME280;10734;44.792;20.482;2022-09-20T16:19:42;100073.88;;;14.07;91.31
21153;BME280;10734;44.792;20.482;2022-09-20T16:22:10;100066.25;;;13.94;92.55
21153;BME280;10734;44.792;20.482;2022-09-20T16:24:39;100069.16;;;13.84;93.00
21153;BME280;10734;44.792;20.482;2022-09-20T16:27:06;100068.66;;;13.64;94.52
21153;BME280;10734;44.792;20.482;2022-09-20T16:29:33;100067.84;;;13.56;94.95
21153;BME280;10734;44.792;20.482;2022-09-20T16:31:59;100080.50;;;13.47;96.49
21153;BME280;10734;44.792;20.482;2022-09-20T16:34:31;100073.56;;;13.36;98.22
21153;BME280;10734;44.792;20.482;2022-09-20T16:36:59;100079.63;;;13.30;98.55
21153;BME280;10734;44.792;20.482;2022-09-20T16:39:27;100081.66;;;13.28;98.62
21153;BME280;10734;44.792;20.482;2022-09-20T16:41:55;100083.34;;;13.21;100.00
21153;BME280;10734;44.792;20.482;2022-09-20T16:44:41;100086.69;;;13.15;100.00
21153;BME280;10734;44.792;20.482;2022-09-20T16:47:12;100078.59;;;13.06;100.00
21153;BME280;10734;44.792;20.482;2022-09-20T16:49:43;100086.69;;;12.98;100.00
21153;BME280;10734;44.792;20.482;2022-09-20T16:52:12;100082.63;;;12.94;100.00
21153;BME280;10734;44.792;20.482;2022-09-20T16:54:39;100093.06;;;12.89;100.00
21153;BME280;10734;44.792;20.482;2022-09-20T16:57:06;100090.72;;;12.86;100.00
21153;BME280;10734;44.792;20.482;2022-09-20T16:59:33;100085.97;;;12.88;100.00
21153;BME280;10734;44.792;20.482;2022-09-20T17:01:59;100089.00;;;12.85;100.00
21153;BME280;10734;44.792;20.482;2022-09-20T17:04:26;100097.44;;;12.82;100.00
21153;BME280;10734;44.792;20.482;2022-09-20T17:06:52;100093.34;;;12.77;100.00
21153;BME280;10734;44.792;20.482;2022-09-20T17:09:19;100099.78;;;12.76;100.00
21153;BME280;10734;44.792;20.482;2022-09-20T17:11:47;100096.72;;;12.71;100.00
21153;BME280;10734;44.792;20.482;2022-09-20T17:14:16;100107.50;;;12.71;100.00
21153;BME280;10734;44.792;20.482;2022-09-20T17:16:44;100101.59;;;12.68;100.00
21153;BME280;10734;44.792;20.482;2022-09-20T17:19:18;100101.28;;;12.71;100.00
21153;BME280;10734;44.792;20.482;2022-09-20T17:21:47;100109.88;;;12.66;100.00
21153;BME280;10734;44.792;20.482;2022-09-20T17:24:17;100113.91;;;12.62;100.00
21153;BME280;10734;44.792;20.482;2022-09-20T17:26:44;100100.03;;;12.57;100.00
21153;BME280;10734;44.792;20.482;2022-09-20T17:29:14;100094.97;;;12.54;100.00
21153;BME280;10734;44.792;20.482;2022-09-20T17:31:43;100107.78;;;12.52;100.00
21153;BME280;10734;44.792;20.482;2022-09-20T17:34:17;100113.50;;;12.49;100.00
21153;BME280;10734;44.792;20.482;2022-09-20T17:36:46;100103.56;;;12.49;100.00
21153;BME280;10734;44.792;20.482;2022-09-20T17:39:13;100111.50;;;12.51;100.00
21153;BME280;10734;44.792;20.482;2022-09-20T17:41:44;100122.28;;;12.51;100.00
21153;BME280;10734;44.792;20.482;2022-09-20T17:44:11;100115.53;;;12.47;100.00
21153;BME280;10734;44.792;20.482;2022-09-20T17:46:39;100109.13;;;12.48;100.00
21153;BME280;10734;44.792;20.482;2022-09-20T17:49:07;100124.31;;;12.49;100.00
21153;BME280;10734;44.792;20.482;2022-09-20T17:51:41;100113.84;;;12.46;100.00
21153;BME280;10734;44.792;20.482;2022-09-20T17:54:08;100113.50;;;12.49;100.00
21153;BME280;10734;44.792;20.482;2022-09-20T17:56:39;100123.16;;;12.51;100.00
21153;BME280;10734;44.792;20.482;2022-09-20T17:59:08;100125.69;;;12.53;100.00
21153;BME280;10734;44.792;20.482;2022-09-20T18:01:35;100125.00;;;12.51;100.00